Orion — WCC9851 — position and weather

sailwx.info

Track history (hours):
 
Tides and Currents Weather Stations Pressure Air Temp Water Temp Dewpoint Dewpoint Depression Visibility Wind Speed Wind Dir Waves Ship Positions

Orion

Owner: CROSS LINK INC, SAN FRANCISCO, CA. More information available from US FCC via Universal Licensing System and Coast Guard Vessel Documentation Center.

Last reported at 2017-Dec-17 13:30 UTC. Time now 2017-Dec-17 13:50 UTC.
Position N 37°46' W 122°23'.

; draft 3.7 m.

Type: Tug. MMSI: 366969470.

Date/timePositionNaut miles runAvg speedWind from/ knotsBaromVisibWave heightAir tempDewpointWater temp
2017-Dec-17 13:30N 37°46' W 122°23'0 0.0
2017-Dec-17 03:14N 37°46' W 122°23'1 4.8
2017-Dec-17 03:01N 37°48' W 122°23'510.9
2017-Dec-17 02:30N 37°53' W 122°25'3 4.9
2017-Dec-17 02:00N 37°55' W 122°25'1 1.3
2017-Dec-17 01:30N 37°55' W 122°25'2 4.5
2017-Dec-17 01:00N 37°55' W 122°22'1 2.1
2017-Dec-17 00:30N 37°54' W 122°23'3 5.5
2017-Dec-17 00:00N 37°52' W 122°24'5 9.0
2017-Dec-16 23:30N 37°47' W 122°23'1 0.1
2017-Dec-16 15:50N 37°46' W 122°23'2 6.5
2017-Dec-16 15:30N 37°49' W 122°23'510.8
2017-Dec-16 15:00N 37°54' W 122°24'2 3.9
2017-Dec-16 14:30N 37°55' W 122°22'1 1.8
2017-Dec-16 14:00N 37°54' W 122°23'3 4.6
2017-Dec-16 13:28N 37°54' W 122°26'3 7.5
2017-Dec-16 13:00N 37°51' W 122°24'5 9.3
2017-Dec-16 12:30N 37°46' W 122°23'0 0.0
2017-Dec-16 12:00N 37°46' W 122°23'0 0.0
2017-Dec-16 08:23N 37°46' W 122°23'2 4.3
2017-Dec-16 08:00N 37°45' W 122°23'0 0.6
2017-Dec-16 07:30N 37°45' W 122°23'1 2.2
2017-Dec-16 07:00N 37°45' W 122°21'0 0.0
2017-Dec-16 06:30N 37°45' W 122°21'0 0.0
2017-Dec-16 06:00N 37°45' W 122°21'0 0.0
2017-Dec-16 05:30N 37°45' W 122°21'0 0.0
2017-Dec-16 05:00N 37°45' W 122°21'0 0.0
2017-Dec-16 04:31N 37°45' W 122°21'0 0.0
2017-Dec-16 04:00N 37°45' W 122°21'0 0.0
2017-Dec-16 03:30N 37°45' W 122°21'0 0.9
2017-Dec-16 03:00N 37°45' W 122°22'1 1.9
2017-Dec-16 02:30N 37°45' W 122°23'0 0.0
2017-Dec-16 02:00N 37°45' W 122°23'0 0.0
2017-Dec-16 01:30N 37°45' W 122°23'0 0.3
2017-Dec-16 01:00N 37°45' W 122°23'2 3.3
2017-Dec-16 00:30N 37°46' W 122°23'0 0.0
2017-Dec-15 16:13N 37°46' W 122°23'1 3.0
2017-Dec-15 16:00N 37°47' W 122°23'510.9
2017-Dec-15 15:30N 37°52' W 122°24'3 5.4
2017-Dec-15 14:58N 37°55' W 122°25'1 1.3
2017-Dec-15 14:28N 37°55' W 122°24'2 4.7
2017-Dec-15 14:00N 37°54' W 122°22'1 1.9
2017-Dec-15 13:30N 37°54' W 122°23'4 8.1
2017-Dec-15 13:01N 37°50' W 122°23'4 7.5
2017-Dec-15 12:30N 37°46' W 122°23'0 0.0
2017-Dec-15 12:00N 37°46' W 122°23'0 0.0
2017-Dec-14 03:34N 37°46' W 122°23'0 0.0
2017-Dec-14 03:30N 37°46' W 122°23'3 7.0
2017-Dec-14 03:01N 37°49' W 122°26'4 8.3
2017-Dec-14 02:30N 37°49' W 122°31'0 0.2
2017-Dec-14 02:00N 37°49' W 122°31'2 4.4
2017-Dec-14 01:31N 37°49' W 122°29'4 7.6
2017-Dec-14 01:00N 37°51' W 122°25'3 6.4
2017-Dec-14 00:30N 37°55' W 122°26'1 2.2
2017-Dec-14 00:00N 37°55' W 122°25'1 2.3
2017-Dec-13 23:31N 37°54' W 122°25'4 8.6
2017-Dec-13 23:01N 37°50' W 122°24'4 7.2
2017-Dec-13 22:30N 37°46' W 122°23'0 0.0
2017-Dec-13 04:33N 37°46' W 122°23'0 0.2
2017-Dec-13 04:30N 37°46' W 122°23'3 6.8
2017-Dec-13 04:00N 37°50' W 122°24'5 9.3
2017-Dec-13 03:30N 37°54' W 122°25'1 2.0
2017-Dec-13 02:59N 37°55' W 122°25'1 1.9
2017-Dec-13 02:30N 37°55' W 122°26'1 1.8
2017-Dec-13 02:00N 37°56' W 122°26'5 9.1
2017-Dec-13 01:30N 38°00' W 122°24'510.0
2017-Dec-13 00:58N 38°03' W 122°18'3 4.4
2017-Dec-13 00:17N 38°05' W 122°16'0 0.0
2017-Dec-12 06:09N 38°05' W 122°16'0 1.5
2017-Dec-12 05:56N 38°05' W 122°15'4 8.5
2017-Dec-12 05:30N 38°03' W 122°19'610.2
2017-Dec-12 04:57N 37°60' W 122°25'4 9.4
2017-Dec-12 04:30N 37°55' W 122°25'3 5.6
2017-Dec-12 04:00N 37°55' W 122°22'1 1.5
2017-Dec-12 03:30N 37°54' W 122°22'3 6.3
2017-Dec-12 03:00N 37°55' W 122°26'0 0.9
2017-Dec-12 02:28N 37°54' W 122°26'2 4.6
2017-Dec-12 02:00N 37°56' W 122°26'5 8.9
2017-Dec-12 01:29N 38°01' W 122°23'4 9.2
2017-Dec-12 01:00N 38°03' W 122°19'4 0.4
2017-Dec-11 15:38N 38°05' W 122°15'110.4
2017-Dec-11 15:30N 38°04' W 122°15'1 1.3
2017-Dec-11 15:00N 38°04' W 122°14'0 0.3
2017-Dec-11 14:30N 38°04' W 122°15'1 1.3
2017-Dec-11 14:00N 38°04' W 122°15'4 7.0
2017-Dec-11 13:29N 38°03' W 122°20'4 8.7
2017-Dec-11 13:00N 38°00' W 122°24'4 7.9
2017-Dec-11 12:27N 37°56' W 122°26'1 2.4
2017-Dec-11 12:00N 37°55' W 122°25'1 2.8
2017-Dec-11 11:30N 37°54' W 122°24'5 9.8
2017-Dec-11 11:00N 37°49' W 122°23'3 5.8
2017-Dec-11 10:31N 37°46' W 122°23'0 0.0
2017-Dec-11 10:00N 37°46' W 122°23'0 0.0
2017-Dec-10 04:18N 37°46' W 122°23'1 2.2
2017-Dec-10 04:00N 37°47' W 122°23'3 6.3
2017-Dec-10 03:30N 37°49' W 122°26'3 6.8
2017-Dec-10 03:00N 37°49' W 122°30'0 0.6
2017-Dec-10 02:30N 37°49' W 122°31'4 7.6
2017-Dec-10 02:00N 37°50' W 122°26'4 8.2
2017-Dec-10 01:30N 37°54' W 122°25'1 2.5
2017-Dec-10 00:59N 37°54' W 122°23'1 2.5
2017-Dec-10 00:30N 37°55' W 122°22'2 4.7
2017-Dec-10 00:00N 37°55' W 122°25'5 8.8
2017-Dec-09 23:28N 37°60' W 122°25'6 9.7
2017-Dec-09 22:49N 38°03' W 122°18'1 0.7
2017-Dec-09 21:18N 38°03' W 122°17'3 9.2
2017-Dec-09 20:56N 38°02' W 122°21'510.3
2017-Dec-09 20:28N 37°59' W 122°25'510.2
2017-Dec-09 20:00N 37°54' W 122°25'510.6
2017-Dec-09 19:30N 37°49' W 122°23'2 4.8
2017-Dec-09 19:01N 37°46' W 122°23'0 0.0
2017-Dec-09 18:01N 37°46' W 122°23'0 0.0
2017-Dec-09 18:01N 37°46' W 122°23'3 6.4
2017-Dec-09 17:30N 37°50' W 122°24'5 8.3
2017-Dec-09 16:57N 37°54' W 122°23'1 2.3
2017-Dec-09 16:30N 37°55' W 122°22'2 3.1
2017-Dec-09 16:00N 37°54' W 122°24'1 2.6
2017-Dec-09 15:30N 37°55' W 122°25'0 0.4
2017-Dec-09 15:00N 37°55' W 122°25'0 0.0
2017-Dec-09 14:31N 37°55' W 122°25'3 4.8
2017-Dec-09 13:57N 37°58' W 122°26'3 6.7
2017-Dec-09 13:29N 38°00' W 122°24'4 7.4
2017-Dec-09 12:56N 38°02' W 122°19'3 7.5
2017-Dec-09 12:30N 38°03' W 122°15'4 7.5
2017-Dec-09 11:56N 38°02' W 122°10'3 4.2
2017-Dec-09 11:11N 38°03' W 122°06'0 0.1
2017-Dec-09 11:00N 38°03' W 122°06'0 0.0
2017-Dec-09 10:29N 38°03' W 122°06'6 3.8
2017-Dec-09 08:59N 38°04' W 122°13'2 0.1
2017-Dec-08 17:22N 38°05' W 122°15'410.8
2017-Dec-08 17:00N 38°03' W 122°10'3 6.8
2017-Dec-08 16:30N 38°03' W 122°06'3 2.6
2017-Dec-08 15:16N 38°02' W 122°10'3 5.0
2017-Dec-08 14:46N 38°04' W 122°13'2 6.4
2017-Dec-08 14:26N 38°04' W 122°16'3 6.5
2017-Dec-08 14:00N 38°03' W 122°19'3 6.5
2017-Dec-08 13:30N 38°02' W 122°23'3 6.9
2017-Dec-08 13:00N 37°59' W 122°26'3 6.8
2017-Dec-08 12:31N 37°56' W 122°25'1 1.1
2017-Dec-08 11:57N 37°55' W 122°25'3 5.6
2017-Dec-08 11:30N 37°53' W 122°24'510.3
2017-Dec-08 11:00N 37°48' W 122°23'1 2.8
2017-Dec-08 10:31N 37°46' W 122°23'0 0.0
2017-Dec-07 19:57N 37°46' W 122°23'3 8.0
2017-Dec-07 19:30N 37°50' W 122°24'5 8.1
2017-Dec-07 18:53N 37°55' W 122°26'2 5.4
2017-Dec-07 18:30N 37°53' W 122°25'3 5.9
2017-Dec-07 18:00N 37°50' W 122°24'3 6.8
2017-Dec-07 17:30N 37°49' W 122°28'3 5.1
2017-Dec-07 17:00N 37°48' W 122°31'3 5.7
2017-Dec-07 16:30N 37°47' W 122°35'1 2.2
2017-Dec-07 16:00N 37°46' W 122°36'1 2.5
2017-Dec-07 15:30N 37°47' W 122°34'612.8
2017-Dec-07 15:00N 37°49' W 122°27'4 8.6
2017-Dec-07 14:30N 37°46' W 122°23'0 0.0
2017-Dec-07 14:00N 37°46' W 122°23'  
Track history (hours):
 
Tides and Currents Weather Stations Pressure Air Temp Water Temp Dewpoint Dewpoint Depression Visibility Wind Speed Wind Dir Waves Ship Positions

Orion

Owner: CROSS LINK INC, SAN FRANCISCO, CA. More information available from US FCC via Universal Licensing System and Coast Guard Vessel Documentation Center.

Last reported at 2017-Dec-17 13:30 UTC. Time now 2017-Dec-17 13:50 UTC.
Position N 37°46' W 122°23'.

; draft 3.7 m.

Type: Tug. MMSI: 366969470.

Date/timePositionNaut miles runAvg speedWind from/ knotsBaromVisibWave heightAir tempDewpointWater temp
2017-Dec-17 13:30N 37°46' W 122°23'0 0.0
2017-Dec-17 03:14N 37°46' W 122°23'1 4.8
2017-Dec-17 03:01N 37°48' W 122°23'510.9
2017-Dec-17 02:30N 37°53' W 122°25'3 4.9
2017-Dec-17 02:00N 37°55' W 122°25'1 1.3
2017-Dec-17 01:30N 37°55' W 122°25'2 4.5
2017-Dec-17 01:00N 37°55' W 122°22'1 2.1
2017-Dec-17 00:30N 37°54' W 122°23'3 5.5
2017-Dec-17 00:00N 37°52' W 122°24'5 9.0
2017-Dec-16 23:30N 37°47' W 122°23'1 0.1
2017-Dec-16 15:50N 37°46' W 122°23'2 6.5
2017-Dec-16 15:30N 37°49' W 122°23'510.8
2017-Dec-16 15:00N 37°54' W 122°24'2 3.9
2017-Dec-16 14:30N 37°55' W 122°22'1 1.8
2017-Dec-16 14:00N 37°54' W 122°23'3 4.6
2017-Dec-16 13:28N 37°54' W 122°26'3 7.5
2017-Dec-16 13:00N 37°51' W 122°24'5 9.3
2017-Dec-16 12:30N 37°46' W 122°23'0 0.0
2017-Dec-16 12:00N 37°46' W 122°23'0 0.0
2017-Dec-16 08:23N 37°46' W 122°23'2 4.3
2017-Dec-16 08:00N 37°45' W 122°23'0 0.6
2017-Dec-16 07:30N 37°45' W 122°23'1 2.2
2017-Dec-16 07:00N 37°45' W 122°21'0 0.0
2017-Dec-16 06:30N 37°45' W 122°21'0 0.0
2017-Dec-16 06:00N 37°45' W 122°21'0 0.0
2017-Dec-16 05:30N 37°45' W 122°21'0 0.0
2017-Dec-16 05:00N 37°45' W 122°21'0 0.0
2017-Dec-16 04:31N 37°45' W 122°21'0 0.0
2017-Dec-16 04:00N 37°45' W 122°21'0 0.0
2017-Dec-16 03:30N 37°45' W 122°21'0 0.9
2017-Dec-16 03:00N 37°45' W 122°22'1 1.9
2017-Dec-16 02:30N 37°45' W 122°23'0 0.0
2017-Dec-16 02:00N 37°45' W 122°23'0 0.0
2017-Dec-16 01:30N 37°45' W 122°23'0 0.3
2017-Dec-16 01:00N 37°45' W 122°23'2 3.3
2017-Dec-16 00:30N 37°46' W 122°23'0 0.0
2017-Dec-15 16:13N 37°46' W 122°23'1 3.0
2017-Dec-15 16:00N 37°47' W 122°23'510.9
2017-Dec-15 15:30N 37°52' W 122°24'3 5.4
2017-Dec-15 14:58N 37°55' W 122°25'1 1.3
2017-Dec-15 14:28N 37°55' W 122°24'2 4.7
2017-Dec-15 14:00N 37°54' W 122°22'1 1.9
2017-Dec-15 13:30N 37°54' W 122°23'4 8.1
2017-Dec-15 13:01N 37°50' W 122°23'4 7.5
2017-Dec-15 12:30N 37°46' W 122°23'0 0.0
2017-Dec-15 12:00N 37°46' W 122°23'0 0.0
2017-Dec-14 03:34N 37°46' W 122°23'0 0.0
2017-Dec-14 03:30N 37°46' W 122°23'3 7.0
2017-Dec-14 03:01N 37°49' W 122°26'4 8.3
2017-Dec-14 02:30N 37°49' W 122°31'0 0.2
2017-Dec-14 02:00N 37°49' W 122°31'2 4.4
2017-Dec-14 01:31N 37°49' W 122°29'4 7.6
2017-Dec-14 01:00N 37°51' W 122°25'3 6.4
2017-Dec-14 00:30N 37°55' W 122°26'1 2.2
2017-Dec-14 00:00N 37°55' W 122°25'1 2.3
2017-Dec-13 23:31N 37°54' W 122°25'4 8.6
2017-Dec-13 23:01N 37°50' W 122°24'4 7.2
2017-Dec-13 22:30N 37°46' W 122°23'0 0.0
2017-Dec-13 04:33N 37°46' W 122°23'0 0.2
2017-Dec-13 04:30N 37°46' W 122°23'3 6.8
2017-Dec-13 04:00N 37°50' W 122°24'5 9.3
2017-Dec-13 03:30N 37°54' W 122°25'1 2.0
2017-Dec-13 02:59N 37°55' W 122°25'1 1.9
2017-Dec-13 02:30N 37°55' W 122°26'1 1.8
2017-Dec-13 02:00N 37°56' W 122°26'5 9.1
2017-Dec-13 01:30N 38°00' W 122°24'510.0
2017-Dec-13 00:58N 38°03' W 122°18'3 4.4
2017-Dec-13 00:17N 38°05' W 122°16'0 0.0
2017-Dec-12 06:09N 38°05' W 122°16'0 1.5
2017-Dec-12 05:56N 38°05' W 122°15'4 8.5
2017-Dec-12 05:30N 38°03' W 122°19'610.2
2017-Dec-12 04:57N 37°60' W 122°25'4 9.4
2017-Dec-12 04:30N 37°55' W 122°25'3 5.6
2017-Dec-12 04:00N 37°55' W 122°22'1 1.5
2017-Dec-12 03:30N 37°54' W 122°22'3 6.3
2017-Dec-12 03:00N 37°55' W 122°26'0 0.9
2017-Dec-12 02:28N 37°54' W 122°26'2 4.6
2017-Dec-12 02:00N 37°56' W 122°26'5 8.9
2017-Dec-12 01:29N 38°01' W 122°23'4 9.2
2017-Dec-12 01:00N 38°03' W 122°19'4 0.4
2017-Dec-11 15:38N 38°05' W 122°15'110.4
2017-Dec-11 15:30N 38°04' W 122°15'1 1.3
2017-Dec-11 15:00N 38°04' W 122°14'0 0.3
2017-Dec-11 14:30N 38°04' W 122°15'1 1.3
2017-Dec-11 14:00N 38°04' W 122°15'4 7.0
2017-Dec-11 13:29N 38°03' W 122°20'4 8.7
2017-Dec-11 13:00N 38°00' W 122°24'4 7.9
2017-Dec-11 12:27N 37°56' W 122°26'1 2.4
2017-Dec-11 12:00N 37°55' W 122°25'1 2.8
2017-Dec-11 11:30N 37°54' W 122°24'5 9.8
2017-Dec-11 11:00N 37°49' W 122°23'3 5.8
2017-Dec-11 10:31N 37°46' W 122°23'0 0.0
2017-Dec-11 10:00N 37°46' W 122°23'0 0.0
2017-Dec-10 04:18N 37°46' W 122°23'1 2.2
2017-Dec-10 04:00N 37°47' W 122°23'3 6.3
2017-Dec-10 03:30N 37°49' W 122°26'3 6.8
2017-Dec-10 03:00N 37°49' W 122°30'0 0.6
2017-Dec-10 02:30N 37°49' W 122°31'4 7.6
2017-Dec-10 02:00N 37°50' W 122°26'4 8.2
2017-Dec-10 01:30N 37°54' W 122°25'1 2.5
2017-Dec-10 00:59N 37°54' W 122°23'1 2.5
2017-Dec-10 00:30N 37°55' W 122°22'2 4.7
2017-Dec-10 00:00N 37°55' W 122°25'5 8.8
2017-Dec-09 23:28N 37°60' W 122°25'6 9.7
2017-Dec-09 22:49N 38°03' W 122°18'1 0.7
2017-Dec-09 21:18N 38°03' W 122°17'3 9.2
2017-Dec-09 20:56N 38°02' W 122°21'510.3
2017-Dec-09 20:28N 37°59' W 122°25'510.2
2017-Dec-09 20:00N 37°54' W 122°25'510.6
2017-Dec-09 19:30N 37°49' W 122°23'2 4.8
2017-Dec-09 19:01N 37°46' W 122°23'0 0.0
2017-Dec-09 18:01N 37°46' W 122°23'0 0.0
2017-Dec-09 18:01N 37°46' W 122°23'3 6.4
2017-Dec-09 17:30N 37°50' W 122°24'5 8.3
2017-Dec-09 16:57N 37°54' W 122°23'1 2.3
2017-Dec-09 16:30N 37°55' W 122°22'2 3.1
2017-Dec-09 16:00N 37°54' W 122°24'1 2.6
2017-Dec-09 15:30N 37°55' W 122°25'0 0.4
2017-Dec-09 15:00N 37°55' W 122°25'0 0.0
2017-Dec-09 14:31N 37°55' W 122°25'3 4.8
2017-Dec-09 13:57N 37°58' W 122°26'3 6.7
2017-Dec-09 13:29N 38°00' W 122°24'4 7.4
2017-Dec-09 12:56N 38°02' W 122°19'3 7.5
2017-Dec-09 12:30N 38°03' W 122°15'4 7.5
2017-Dec-09 11:56N 38°02' W 122°10'3 4.2
2017-Dec-09 11:11N 38°03' W 122°06'0 0.1
2017-Dec-09 11:00N 38°03' W 122°06'0 0.0
2017-Dec-09 10:29N 38°03' W 122°06'6 3.8
2017-Dec-09 08:59N 38°04' W 122°13'2 0.1
2017-Dec-08 17:22N 38°05' W 122°15'410.8
2017-Dec-08 17:00N 38°03' W 122°10'3 6.8
2017-Dec-08 16:30N 38°03' W 122°06'3 2.6
2017-Dec-08 15:16N 38°02' W 122°10'3 5.0
2017-Dec-08 14:46N 38°04' W 122°13'2 6.4
2017-Dec-08 14:26N 38°04' W 122°16'3 6.5
2017-Dec-08 14:00N 38°03' W 122°19'3 6.5
2017-Dec-08 13:30N 38°02' W 122°23'3 6.9
2017-Dec-08 13:00N 37°59' W 122°26'3 6.8
2017-Dec-08 12:31N 37°56' W 122°25'1 1.1
2017-Dec-08 11:57N 37°55' W 122°25'3 5.6
2017-Dec-08 11:30N 37°53' W 122°24'510.3
2017-Dec-08 11:00N 37°48' W 122°23'1 2.8
2017-Dec-08 10:31N 37°46' W 122°23'0 0.0
2017-Dec-07 19:57N 37°46' W 122°23'3 8.0
2017-Dec-07 19:30N 37°50' W 122°24'5 8.1
2017-Dec-07 18:53N 37°55' W 122°26'2 5.4
2017-Dec-07 18:30N 37°53' W 122°25'3 5.9
2017-Dec-07 18:00N 37°50' W 122°24'3 6.8
2017-Dec-07 17:30N 37°49' W 122°28'3 5.1
2017-Dec-07 17:00N 37°48' W 122°31'3 5.7
2017-Dec-07 16:30N 37°47' W 122°35'1 2.2
2017-Dec-07 16:00N 37°46' W 122°36'1 2.5
2017-Dec-07 15:30N 37°47' W 122°34'612.8
2017-Dec-07 15:00N 37°49' W 122°27'4 8.6
2017-Dec-07 14:30N 37°46' W 122°23'0 0.0
2017-Dec-07 14:00N 37°46' W 122°23'  

Dump ship's entire track history